Time;durP1;ratioP1;P1;durP2;ratioP2;P2;SDS_P1;SDS_P2;PMS_P1;PMS_P2;Temp;Humidity;BMP_temperature;BMP_pressure;BME280_temperature;BME280_humidity;BME280_pressure;Samples;Min_cycle;Max_cycle;Signal;HPM_P1;HPM_P2
2022/09/29 00:00:09;;;;;;;0.00;0.00;;;;;;;;;;1740127;28;20263;-70
2022/09/29 00:01:01;;;;;;;0.00;0.00;;;;;;;;;;1739368;28;20640;-71
2022/09/29 00:01:53;;;;;;;0.00;0.00;;;;;;;;;;1740026;28;20206;-71
2022/09/29 00:02:44;;;;;;;0.00;0.00;;;;;;;;;;1739532;28;20613;-71
2022/09/29 00:03:36;;;;;;;0.00;0.00;;;;;;;;;;1740012;28;20210;-71
2022/09/29 00:04:27;;;;;;;0.00;0.00;;;;;;;;;;1739323;28;20258;-71
2022/09/29 00:05:20;;;;;;;0.00;0.00;;;;;;;;;;1740376;28;20565;-71
2022/09/29 00:06:13;;;;;;;0.00;0.00;;;;;;;;;;1739173;28;20219;-71
2022/09/29 00:07:05;;;;;;;0.00;0.00;;;;;;;;;;1739970;28;20285;-71
2022/09/29 00:07:56;;;;;;;0.00;0.00;;;;;;;;;;1739608;28;20312;-70
2022/09/29 00:08:48;;;;;;;0.00;0.00;;;;;;;;;;1740018;28;20586;-71
2022/09/29 00:09:39;;;;;;;0.00;0.00;;;;;;;;;;1739604;28;20210;-71
2022/09/29 00:10:31;;;;;;;0.00;0.00;;;;;;;;;;1740256;28;20541;-71
2022/09/29 00:11:22;;;;;;;0.00;0.00;;;;;;;;;;1739390;28;20230;-71
2022/09/29 00:12:14;;;;;;;0.00;0.00;;;;;;;;;;1740029;28;20214;-71
2022/09/29 00:13:05;;;;;;;0.00;0.00;;;;;;;;;;1739365;28;20676;-71
2022/09/29 00:13:59;;;;;;;0.00;0.00;;;;;;;;;;1739967;28;20213;-71
2022/09/29 00:14:50;;;;;;;0.00;0.00;;;;;;;;;;1739324;28;20505;-70
2022/09/29 00:15:42;;;;;;;0.00;0.00;;;;;;;;;;1740314;28;20288;-71
2022/09/29 00:16:33;;;;;;;0.00;0.00;;;;;;;;;;1739185;28;20252;-70
2022/09/29 00:17:25;;;;;;;0.00;0.00;;;;;;;;;;1739927;28;20621;-70
2022/09/29 00:18:16;;;;;;;0.00;0.00;;;;;;;;;;1739515;28;20254;-70
2022/09/29 00:19:08;;;;;;;0.00;0.00;;;;;;;;;;1739862;28;20250;-70
2022/09/29 00:19:59;;;;;;;0.00;0.00;;;;;;;;;;1739892;28;20217;-70
2022/09/29 00:20:58;;;;;;;0.00;0.00;;;;;;;;;;1741051;28;20209;-70
2022/09/29 00:21:49;;;;;;;0.00;0.00;;;;;;;;;;1739324;28;20239;-71
2022/09/29 00:22:41;;;;;;;0.00;0.00;;;;;;;;;;1740179;28;20218;-70
2022/09/29 00:23:33;;;;;;;0.00;0.00;;;;;;;;;;1740126;28;20324;-70
2022/09/29 00:24:25;;;;;;;0.00;0.00;;;;;;;;;;1739753;28;20245;-71
2022/09/29 00:25:16;;;;;;;0.00;0.00;;;;;;;;;;1740068;28;20583;-70
2022/09/29 00:26:09;;;;;;;0.00;0.00;;;;;;;;;;1739612;28;20557;-70
2022/09/29 00:27:00;;;;;;;0.00;0.00;;;;;;;;;;1739646;28;20241;-70
2022/09/29 00:27:52;;;;;;;0.00;0.00;;;;;;;;;;1738771;28;20213;-70
2022/09/29 00:28:46;;;;;;;0.00;0.00;;;;;;;;;;1739981;28;20203;-70
2022/09/29 00:29:39;;;;;;;0.00;0.00;;;;;;;;;;1738970;28;20774;-70
2022/09/29 00:30:30;;;;;;;0.00;0.00;;;;;;;;;;1740264;28;20203;-70
2022/09/29 00:31:23;;;;;;;0.00;0.00;;;;;;;;;;1739212;28;20214;-70
2022/09/29 00:32:14;;;;;;;0.00;0.00;;;;;;;;;;1739768;28;20642;-71
2022/09/29 00:33:06;;;;;;;0.00;0.00;;;;;;;;;;1739883;28;20236;-70
2022/09/29 00:33:57;;;;;;;0.00;0.00;;;;;;;;;;1739820;28;20652;-71
2022/09/29 00:34:50;;;;;;;0.00;0.00;;;;;;;;;;1739360;28;20293;-71
2022/09/29 00:35:41;;;;;;;0.00;0.00;;;;;;;;;;1740208;28;20543;-70
2022/09/29 00:36:33;;;;;;;0.00;0.00;;;;;;;;;;1739366;28;20222;-70
2022/09/29 00:37:24;;;;;;;0.00;0.00;;;;;;;;;;1739539;28;20214;-70
2022/09/29 00:38:16;;;;;;;0.00;0.00;;;;;;;;;;1738732;28;20268;-70
2022/09/29 00:39:07;;;;;;;0.00;0.00;;;;;;;;;;1739991;28;20206;-70
2022/09/29 00:40:00;;;;;;;0.00;0.00;;;;;;;;;;1738506;28;20206;-70
2022/09/29 00:40:51;;;;;;;0.00;0.00;;;;;;;;;;1740270;28;20207;-69
2022/09/29 00:41:43;;;;;;;0.00;0.00;;;;;;;;;;1739109;28;20268;-71
2022/09/29 00:42:34;;;;;;;0.00;0.00;;;;;;;;;;1739036;28;20305;-71
2022/09/29 00:43:48;;;;;;;0.00;0.00;;;;;;;;;;1739491;28;20233;-70
2022/09/29 00:44:54;;;;;;;0.00;0.00;;;;;;;;;;1739017;28;20684;-71
2022/09/29 00:45:46;;;;;;;0.00;0.00;;;;;;;;;;1740285;28;20274;-71
2022/09/29 00:46:40;;;;;;;0.00;0.00;;;;;;;;;;1738738;28;20312;-70
2022/09/29 00:47:33;;;;;;;0.00;0.00;;;;;;;;;;1740049;28;20207;-70
2022/09/29 00:48:29;;;;;;;0.00;0.00;;;;;;;;;;1732474;28;20235;-70
2022/09/29 00:49:24;;;;;;;0.00;0.00;;;;;;;;;;1732572;28;20188;-70
2022/09/29 00:50:17;;;;;;;0.00;0.00;;;;;;;;;;1733059;28;20244;-70
2022/09/29 00:51:10;;;;;;;0.00;0.00;;;;;;;;;;1732539;28;20286;-69
2022/09/29 00:52:02;;;;;;;0.00;0.00;;;;;;;;;;1732944;28;20640;-70
2022/09/29 00:52:56;;;;;;;0.00;0.00;;;;;;;;;;1732447;28;20223;-70
2022/09/29 00:53:47;;;;;;;0.00;0.00;;;;;;;;;;1733008;28;20204;-69
2022/09/29 00:54:42;;;;;;;0.00;0.00;;;;;;;;;;1735473;28;20647;-70
2022/09/29 00:55:35;;;;;;;0.00;0.00;;;;;;;;;;1740182;28;20339;-70
2022/09/29 00:56:28;;;;;;;0.00;0.00;;;;;;;;;;1738958;28;20635;-71
2022/09/29 00:57:21;;;;;;;0.00;0.00;;;;;;;;;;1739867;28;20241;-71
2022/09/29 00:58:14;;;;;;;0.00;0.00;;;;;;;;;;1739385;28;20298;-71
2022/09/29 00:59:08;;;;;;;0.00;0.00;;;;;;;;;;1739393;28;20265;-71
2022/09/29 01:00:04;;;;;;;0.00;0.00;;;;;;;;;;1738609;28;20229;-71
2022/09/29 01:00:55;;;;;;;0.00;0.00;;;;;;;;;;1738938;28;20262;-70
2022/09/29 01:01:47;;;;;;;0.00;0.00;;;;;;;;;;1739549;28;20214;-70
2022/09/29 01:02:40;;;;;;;0.00;0.00;;;;;;;;;;1738742;28;20758;-70
2022/09/29 01:03:34;;;;;;;0.00;0.00;;;;;;;;;;1739568;28;20309;-70
2022/09/29 01:04:25;;;;;;;0.00;0.00;;;;;;;;;;1738888;28;20669;-70
2022/09/29 01:05:19;;;;;;;0.00;0.00;;;;;;;;;;1739829;28;20543;-70
2022/09/29 01:06:15;;;;;;;0.00;0.00;;;;;;;;;;1738712;28;20605;-70
2022/09/29 01:07:08;;;;;;;0.00;0.00;;;;;;;;;;1739483;28;20580;-70
2022/09/29 01:08:03;;;;;;;0.00;0.00;;;;;;;;;;1738788;28;20283;-70
2022/09/29 01:08:56;;;;;;;0.00;0.00;;;;;;;;;;1738967;28;20650;-70
2022/09/29 01:09:50;;;;;;;0.00;0.00;;;;;;;;;;1738482;28;20644;-70
2022/09/29 01:10:42;;;;;;;0.00;0.00;;;;;;;;;;1739966;28;20261;-69
2022/09/29 01:11:35;;;;;;;0.00;0.00;;;;;;;;;;1738497;28;20226;-70
2022/09/29 01:12:26;;;;;;;0.00;0.00;;;;;;;;;;1739617;28;20234;-70
2022/09/29 01:13:18;;;;;;;0.00;0.00;;;;;;;;;;1738852;28;20472;-70
2022/09/29 01:14:10;;;;;;;0.00;0.00;;;;;;;;;;1739496;28;20601;-70
2022/09/29 01:15:06;;;;;;;0.00;0.00;;;;;;;;;;1738805;28;20207;-70
2022/09/29 01:15:57;;;;;;;0.00;0.00;;;;;;;;;;1738758;28;20203;-71
2022/09/29 01:16:49;;;;;;;0.00;0.00;;;;;;;;;;1739518;28;20206;-71
2022/09/29 01:17:40;;;;;;;0.00;0.00;;;;;;;;;;1738792;28;20206;-71
2022/09/29 01:18:33;;;;;;;0.00;0.00;;;;;;;;;;1739541;28;20501;-71
2022/09/29 01:19:29;;;;;;;0.00;0.00;;;;;;;;;;1738403;28;20226;-71
2022/09/29 01:20:22;;;;;;;0.00;0.00;;;;;;;;;;1739802;28;20191;-71
2022/09/29 01:21:17;;;;;;;0.00;0.00;;;;;;;;;;1738646;28;20255;-70
2022/09/29 01:22:12;;;;;;;0.00;0.00;;;;;;;;;;1739516;28;20556;-70
2022/09/29 01:23:27;;;;;;;0.00;0.00;;;;;;;;;;1738682;28;20237;-70
2022/09/29 01:24:30;;;;;;;0.00;0.00;;;;;;;;;;1738598;28;20513;-70
2022/09/29 01:25:30;;;;;;;0.00;0.00;;;;;;;;;;1732727;28;20223;-70
2022/09/29 01:26:40;;;;;;;0.00;0.00;;;;;;;;;;1732329;28;20192;-71
2022/09/29 01:27:35;;;;;;;0.00;0.00;;;;;;;;;;1732730;28;20289;-71
2022/09/29 01:28:38;;;;;;;0.00;0.00;;;;;;;;;;1732561;28;20499;-71
2022/09/29 01:29:44;;;;;;;0.00;0.00;;;;;;;;;;1731992;28;20192;-71
2022/09/29 01:30:43;;;;;;;0.00;0.00;;;;;;;;;;1719738;28;20196;-70
2022/09/29 01:31:37;;;;;;;0.00;0.00;;;;;;;;;;1732274;28;20203;-70
2022/09/29 01:32:32;;;;;;;0.00;0.00;;;;;;;;;;1732597;28;20206;-70
2022/09/29 01:33:27;;;;;;;0.00;0.00;;;;;;;;;;1726137;28;20307;-70
2022/09/29 01:34:25;;;;;;;0.00;0.00;;;;;;;;;;1726438;28;20210;-70
2022/09/29 01:35:19;;;;;;;0.00;0.00;;;;;;;;;;1739848;28;20590;-70
2022/09/29 01:36:18;;;;;;;0.00;0.00;;;;;;;;;;1738413;28;20217;-70
2022/09/29 01:37:13;;;;;;;0.00;0.00;;;;;;;;;;1739370;28;20631;-69
2022/09/29 01:38:13;;;;;;;0.00;0.00;;;;;;;;;;1738645;28;20195;-70
2022/09/29 01:39:10;;;;;;;0.00;0.00;;;;;;;;;;1725815;28;20586;-70
2022/09/29 01:40:07;;;;;;;0.00;0.00;;;;;;;;;;1731755;28;20210;-70
2022/09/29 01:41:02;;;;;;;0.00;0.00;;;;;;;;;;1732050;28;20202;-70
2022/09/29 01:41:58;;;;;;;0.00;0.00;;;;;;;;;;1732484;28;20250;-70
2022/09/29 01:42:54;;;;;;;0.00;0.00;;;;;;;;;;1731984;28;20642;-70
2022/09/29 01:43:49;;;;;;;0.00;0.00;;;;;;;;;;1732489;28;20200;-70
2022/09/29 01:44:42;;;;;;;0.00;0.00;;;;;;;;;;1732097;28;20230;-70
2022/09/29 01:45:35;;;;;;;0.00;0.00;;;;;;;;;;1732861;28;20227;-71
2022/09/29 01:46:31;;;;;;;0.00;0.00;;;;;;;;;;1736374;28;20203;-71
2022/09/29 01:47:23;;;;;;;0.00;0.00;;;;;;;;;;1739439;28;20385;-71
2022/09/29 01:48:17;;;;;;;0.00;0.00;;;;;;;;;;1738391;28;20261;-71
2022/09/29 01:49:10;;;;;;;0.00;0.00;;;;;;;;;;1739387;28;20242;-71
2022/09/29 01:50:04;;;;;;;0.00;0.00;;;;;;;;;;1738455;28;20203;-71
2022/09/29 01:50:57;;;;;;;0.00;0.00;;;;;;;;;;1738765;28;20281;-71
2022/09/29 01:51:50;;;;;;;0.00;0.00;;;;;;;;;;1731164;28;20223;-71
2022/09/29 01:52:44;;;;;;;0.00;0.00;;;;;;;;;;1732097;28;20218;-71
2022/09/29 01:53:38;;;;;;;0.00;0.00;;;;;;;;;;1732546;28;20211;-71
2022/09/29 01:54:33;;;;;;;0.00;0.00;;;;;;;;;;1732111;28;20270;-71
2022/09/29 01:55:27;;;;;;;0.00;0.00;;;;;;;;;;1732906;28;20513;-71
2022/09/29 01:56:21;;;;;;;0.00;0.00;;;;;;;;;;1732204;28;20546;-70
2022/09/29 01:57:16;;;;;;;0.00;0.00;;;;;;;;;;1732173;28;20204;-70
2022/09/29 01:58:08;;;;;;;0.00;0.00;;;;;;;;;;1731884;28;20222;-70
2022/09/29 01:59:02;;;;;;;0.00;0.00;;;;;;;;;;1732204;28;20285;-70
2022/09/29 01:59:55;;;;;;;0.00;0.00;;;;;;;;;;1732468;28;20226;-70
2022/09/29 02:00:49;;;;;;;0.00;0.00;;;;;;;;;;1732811;28;20318;-70
2022/09/29 02:01:43;;;;;;;0.00;0.00;;;;;;;;;;1732176;28;20313;-70
2022/09/29 02:02:38;;;;;;;0.00;0.00;;;;;;;;;;1732158;28;20203;-70
2022/09/29 02:03:30;;;;;;;0.00;0.00;;;;;;;;;;1731409;28;20251;-70
2022/09/29 02:04:24;;;;;;;0.00;0.00;;;;;;;;;;1732251;28;20238;-70
2022/09/29 02:05:19;;;;;;;0.00;0.00;;;;;;;;;;1732728;28;20215;-70
2022/09/29 02:06:12;;;;;;;0.00;0.00;;;;;;;;;;1731998;28;20208;-71
2022/09/29 02:07:06;;;;;;;0.00;0.00;;;;;;;;;;1732388;28;20902;-71
2022/09/29 02:08:01;;;;;;;0.00;0.00;;;;;;;;;;1732228;28;20208;-71
2022/09/29 02:08:54;;;;;;;0.00;0.00;;;;;;;;;;1732893;28;20250;-70
2022/09/29 02:09:47;;;;;;;0.00;0.00;;;;;;;;;;1731812;28;20204;-71
2022/09/29 02:10:40;;;;;;;0.00;0.00;;;;;;;;;;1732854;28;20211;-71
2022/09/29 02:11:33;;;;;;;0.00;0.00;;;;;;;;;;1732370;28;20196;-71
2022/09/29 02:12:26;;;;;;;0.00;0.00;;;;;;;;;;1733080;28;20203;-71
2022/09/29 02:13:19;;;;;;;0.00;0.00;;;;;;;;;;1732539;28;20237;-71
2022/09/29 02:14:12;;;;;;;0.00;0.00;;;;;;;;;;1733010;28;20236;-71
2022/09/29 02:15:08;;;;;;;0.00;0.00;;;;;;;;;;1733011;28;20215;-71
2022/09/29 02:16:00;;;;;;;0.00;0.00;;;;;;;;;;1731962;28;20208;-71
2022/09/29 02:16:58;;;;;;;0.00;0.00;;;;;;;;;;1732310;28;20281;-71
2022/09/29 02:17:51;;;;;;;0.00;0.00;;;;;;;;;;1731717;28;20219;-71
2022/09/29 02:18:46;;;;;;;0.00;0.00;;;;;;;;;;1732393;28;20203;-71
2022/09/29 02:19:38;;;;;;;0.00;0.00;;;;;;;;;;1731716;28;20204;-71
2022/09/29 02:20:30;;;;;;;0.00;0.00;;;;;;;;;;1732780;28;20217;-71
2022/09/29 02:21:22;;;;;;;0.00;0.00;;;;;;;;;;1732152;28;20640;-70
2022/09/29 02:22:15;;;;;;;0.00;0.00;;;;;;;;;;1732111;28;20299;-71
2022/09/29 02:23:06;;;;;;;0.00;0.00;;;;;;;;;;1731902;28;20238;-71
2022/09/29 02:23:58;;;;;;;0.00;0.00;;;;;;;;;;1732216;28;20581;-71
2022/09/29 02:24:52;;;;;;;0.00;0.00;;;;;;;;;;1731977;28;20469;-71
2022/09/29 02:25:44;;;;;;;0.00;0.00;;;;;;;;;;1732744;28;20653;-71
2022/09/29 02:26:36;;;;;;;0.00;0.00;;;;;;;;;;1731869;28;20207;-70
2022/09/29 02:27:28;;;;;;;0.00;0.00;;;;;;;;;;1732811;28;20199;-70
2022/09/29 02:28:19;;;;;;;0.00;0.00;;;;;;;;;;1732355;28;20257;-70
2022/09/29 02:29:11;;;;;;;0.00;0.00;;;;;;;;;;1732912;28;20211;-70
2022/09/29 02:30:06;;;;;;;0.00;0.00;;;;;;;;;;1732729;28;20222;-70
2022/09/29 02:30:58;;;;;;;0.00;0.00;;;;;;;;;;1732876;28;20488;-71
2022/09/29 02:31:49;;;;;;;0.00;0.00;;;;;;;;;;1731314;28;20242;-70
2022/09/29 02:32:43;;;;;;;0.00;0.00;;;;;;;;;;1731892;28;20307;-70
2022/09/29 02:33:34;;;;;;;0.00;0.00;;;;;;;;;;1731976;28;20653;-71
2022/09/29 02:34:26;;;;;;;0.00;0.00;;;;;;;;;;1731775;28;20241;-70
2022/09/29 02:35:17;;;;;;;0.00;0.00;;;;;;;;;;1732606;28;20246;-71
2022/09/29 02:36:16;;;;;;;0.00;0.00;;;;;;;;;;1731975;28;20594;-70
2022/09/29 02:37:19;;;;;;;0.00;0.00;;;;;;;;;;1732186;28;20539;-69
2022/09/29 02:38:13;;;;;;;0.00;0.00;;;;;;;;;;1732074;28;20222;-70
2022/09/29 02:39:09;;;;;;;0.00;0.00;;;;;;;;;;1732011;28;20223;-70
2022/09/29 02:40:10;;;;;;;0.00;0.00;;;;;;;;;;1731653;28;20482;-70
2022/09/29 02:41:07;;;;;;;0.00;0.00;;;;;;;;;;1731852;28;20645;-71
2022/09/29 02:42:03;;;;;;;0.00;0.00;;;;;;;;;;1735548;28;20643;-70
2022/09/29 02:42:58;;;;;;;0.00;0.00;;;;;;;;;;1738738;28;20211;-71
2022/09/29 02:44:05;;;;;;;0.00;0.00;;;;;;;;;;1739157;28;20260;-71
2022/09/29 02:45:18;;;;;;;0.00;0.00;;;;;;;;;;1738283;28;20238;-71
2022/09/29 02:46:14;;;;;;;0.00;0.00;;;;;;;;;;1738776;28;20501;-70
2022/09/29 02:47:18;;;;;;;0.00;0.00;;;;;;;;;;1738930;28;20249;-71
2022/09/29 02:48:20;;;;;;;0.00;0.00;;;;;;;;;;1738709;28;20199;-71
2022/09/29 02:49:45;;;;;;;0.00;0.00;;;;;;;;;;1738788;28;20243;-71
2022/09/29 02:50:42;;;;;;;0.00;0.00;;;;;;;;;;1711479;28;20241;-71
2022/09/29 02:51:37;;;;;;;0.00;0.00;;;;;;;;;;1705478;28;20321;-70
2022/09/29 02:52:34;;;;;;;0.00;0.00;;;;;;;;;;1704587;29;20329;-70
2022/09/29 02:53:33;;;;;;;0.00;0.00;;;;;;;;;;1710615;28;20198;-70
2022/09/29 02:54:40;;;;;;;0.00;0.00;;;;;;;;;;1709629;28;20214;-70
2022/09/29 02:55:35;;;;;;;0.00;0.00;;;;;;;;;;1704622;29;20691;-70
2022/09/29 02:56:29;;;;;;;0.00;0.00;;;;;;;;;;1718099;28;20235;-71
2022/09/29 02:57:24;;;;;;;0.00;0.00;;;;;;;;;;1732000;28;20226;-71
2022/09/29 02:58:19;;;;;;;0.00;0.00;;;;;;;;;;1731882;28;20628;-70
2022/09/29 02:59:13;;;;;;;0.00;0.00;;;;;;;;;;1732165;28;20240;-71
2022/09/29 03:00:07;;;;;;;0.00;0.00;;;;;;;;;;1732059;28;20283;-71
2022/09/29 03:01:00;;;;;;;0.00;0.00;;;;;;;;;;1731998;28;20308;-70
2022/09/29 03:01:52;;;;;;;0.00;0.00;;;;;;;;;;1731875;28;20215;-70
2022/09/29 03:02:45;;;;;;;0.00;0.00;;;;;;;;;;1732080;28;20222;-70
2022/09/29 03:03:38;;;;;;;0.00;0.00;;;;;;;;;;1731955;28;20227;-70
2022/09/29 03:04:30;;;;;;;0.00;0.00;;;;;;;;;;1731964;28;20572;-70
2022/09/29 03:05:22;;;;;;;0.00;0.00;;;;;;;;;;1732373;28;20208;-69
2022/09/29 03:06:15;;;;;;;0.00;0.00;;;;;;;;;;1731647;28;20295;-69
2022/09/29 03:07:06;;;;;;;0.00;0.00;;;;;;;;;;1732074;28;20242;-69
2022/09/29 03:07:58;;;;;;;0.00;0.00;;;;;;;;;;1731779;28;20493;-70
2022/09/29 03:08:49;;;;;;;0.00;0.00;;;;;;;;;;1732258;28;20239;-70
2022/09/29 03:09:41;;;;;;;0.00;0.00;;;;;;;;;;1731384;28;20203;-69
2022/09/29 03:10:32;;;;;;;0.00;0.00;;;;;;;;;;1732546;28;20235;-70
2022/09/29 03:11:24;;;;;;;0.00;0.00;;;;;;;;;;1733119;28;20675;-70
2022/09/29 03:12:17;;;;;;;0.00;0.00;;;;;;;;;;1733395;28;20609;-70
2022/09/29 03:13:09;;;;;;;0.00;0.00;;;;;;;;;;1733354;28;20515;-70
2022/09/29 03:14:00;;;;;;;0.00;0.00;;;;;;;;;;1733381;28;20381;-71
2022/09/29 03:14:52;;;;;;;0.00;0.00;;;;;;;;;;1733499;28;20688;-71
2022/09/29 03:15:43;;;;;;;0.00;0.00;;;;;;;;;;1733700;28;20326;-70
2022/09/29 03:16:36;;;;;;;0.00;0.00;;;;;;;;;;1733001;28;20241;-70
2022/09/29 03:17:27;;;;;;;0.00;0.00;;;;;;;;;;1733672;28;20581;-70
2022/09/29 03:18:21;;;;;;;0.00;0.00;;;;;;;;;;1732920;28;20311;-70
2022/09/29 03:19:13;;;;;;;0.00;0.00;;;;;;;;;;1733395;28;20247;-71
2022/09/29 03:20:06;;;;;;;0.00;0.00;;;;;;;;;;1733445;28;20671;-70
2022/09/29 03:20:57;;;;;;;0.00;0.00;;;;;;;;;;1733361;28;20272;-70
2022/09/29 03:21:49;;;;;;;0.00;0.00;;;;;;;;;;1733111;28;20299;-71
2022/09/29 03:22:40;;;;;;;0.00;0.00;;;;;;;;;;1733177;28;20218;-70
2022/09/29 03:23:32;;;;;;;0.00;0.00;;;;;;;;;;1733552;28;20267;-71
2022/09/29 03:24:23;;;;;;;0.00;0.00;;;;;;;;;;1733235;28;20207;-71
2022/09/29 03:25:15;;;;;;;0.00;0.00;;;;;;;;;;1733720;28;20207;-71
2022/09/29 03:26:07;;;;;;;0.00;0.00;;;;;;;;;;1733257;28;20212;-70
2022/09/29 03:26:59;;;;;;;0.00;0.00;;;;;;;;;;1733078;28;20597;-70
2022/09/29 03:27:50;;;;;;;0.00;0.00;;;;;;;;;;1733345;28;20246;-70
2022/09/29 03:28:42;;;;;;;0.00;0.00;;;;;;;;;;1733315;28;20708;-71
2022/09/29 03:29:33;;;;;;;0.00;0.00;;;;;;;;;;1732930;28;20238;-70
2022/09/29 03:30:25;;;;;;;0.00;0.00;;;;;;;;;;1733631;28;20195;-70
2022/09/29 03:31:17;;;;;;;0.00;0.00;;;;;;;;;;1733256;28;20660;-71
2022/09/29 03:32:09;;;;;;;0.00;0.00;;;;;;;;;;1733287;28;20207;-70
2022/09/29 03:33:00;;;;;;;0.00;0.00;;;;;;;;;;1733100;28;20219;-70
2022/09/29 03:33:52;;;;;;;0.00;0.00;;;;;;;;;;1733327;28;20224;-70
2022/09/29 03:34:44;;;;;;;0.00;0.00;;;;;;;;;;1732999;28;20203;-70
2022/09/29 03:35:36;;;;;;;0.00;0.00;;;;;;;;;;1733701;28;20231;-70
2022/09/29 03:36:29;;;;;;;0.00;0.00;;;;;;;;;;1733055;28;20204;-70
2022/09/29 03:37:20;;;;;;;0.00;0.00;;;;;;;;;;1734107;28;20199;-70
2022/09/29 03:38:12;;;;;;;0.00;0.00;;;;;;;;;;1740066;28;20221;-70
2022/09/29 03:39:03;;;;;;;0.00;0.00;;;;;;;;;;1740091;28;20230;-70
2022/09/29 03:39:55;;;;;;;0.00;0.00;;;;;;;;;;1739847;28;20207;-70
2022/09/29 03:40:46;;;;;;;0.00;0.00;;;;;;;;;;1740572;28;20271;-70
2022/09/29 03:41:39;;;;;;;0.00;0.00;;;;;;;;;;1739656;28;20195;-70
2022/09/29 03:42:30;;;;;;;0.00;0.00;;;;;;;;;;1740150;28;20209;-70
2022/09/29 03:43:22;;;;;;;0.00;0.00;;;;;;;;;;1739818;28;20598;-70
2022/09/29 03:44:13;;;;;;;0.00;0.00;;;;;;;;;;1740312;28;20242;-70
2022/09/29 03:45:05;;;;;;;0.00;0.00;;;;;;;;;;1740182;28;20211;-70
2022/09/29 03:45:56;;;;;;;0.00;0.00;;;;;;;;;;1740281;28;20534;-70
2022/09/29 03:46:48;;;;;;;0.00;0.00;;;;;;;;;;1740070;28;20335;-70
2022/09/29 03:47:39;;;;;;;0.00;0.00;;;;;;;;;;1739877;28;20199;-70
2022/09/29 03:48:33;;;;;;;0.00;0.00;;;;;;;;;;1740118;28;20583;-70
2022/09/29 03:49:25;;;;;;;0.00;0.00;;;;;;;;;;1739506;28;20207;-70
2022/09/29 03:50:18;;;;;;;0.00;0.00;;;;;;;;;;1740493;28;20268;-70
2022/09/29 03:51:09;;;;;;;0.00;0.00;;;;;;;;;;1739972;28;20249;-71
2022/09/29 03:52:01;;;;;;;0.00;0.00;;;;;;;;;;1740683;28;20202;-71
2022/09/29 03:52:52;;;;;;;0.00;0.00;;;;;;;;;;1740691;28;20622;-71
2022/09/29 03:53:44;;;;;;;0.00;0.00;;;;;;;;;;1740422;28;20282;-71
2022/09/29 03:54:36;;;;;;;0.00;0.00;;;;;;;;;;1740730;28;20218;-71
2022/09/29 03:55:28;;;;;;;0.00;0.00;;;;;;;;;;1740919;28;20195;-71
2022/09/29 03:56:19;;;;;;;0.00;0.00;;;;;;;;;;1740788;28;20203;-71
2022/09/29 03:57:11;;;;;;;0.00;0.00;;;;;;;;;;1740782;28;20222;-70
2022/09/29 03:58:02;;;;;;;0.00;0.00;;;;;;;;;;1740548;28;20249;-70
2022/09/29 03:58:54;;;;;;;0.00;0.00;;;;;;;;;;1740642;28;20686;-70
2022/09/29 03:59:45;;;;;;;0.00;0.00;;;;;;;;;;1739635;28;20547;-69
2022/09/29 04:00:37;;;;;;;0.00;0.00;;;;;;;;;;1740229;28;20262;-70
2022/09/29 04:01:28;;;;;;;0.00;0.00;;;;;;;;;;1739797;28;20602;-70
2022/09/29 04:02:20;;;;;;;0.00;0.00;;;;;;;;;;1739782;28;20218;-70
2022/09/29 04:03:12;;;;;;;0.00;0.00;;;;;;;;;;1740017;28;20230;-70
2022/09/29 04:04:04;;;;;;;0.00;0.00;;;;;;;;;;1739662;28;20256;-70
2022/09/29 04:04:55;;;;;;;0.00;0.00;;;;;;;;;;1739791;28;20365;-70
2022/09/29 04:05:49;;;;;;;0.00;0.00;;;;;;;;;;1740356;28;20543;-70
2022/09/29 04:06:40;;;;;;;0.00;0.00;;;;;;;;;;1739725;28;20290;-70
2022/09/29 04:07:32;;;;;;;0.00;0.00;;;;;;;;;;1740162;28;20205;-70
2022/09/29 04:08:23;;;;;;;0.00;0.00;;;;;;;;;;1739587;28;20231;-70
2022/09/29 04:09:15;;;;;;;0.00;0.00;;;;;;;;;;1739776;28;20215;-70
2022/09/29 04:10:06;;;;;;;0.00;0.00;;;;;;;;;;1740148;28;20321;-70
2022/09/29 04:10:58;;;;;;;0.00;0.00;;;;;;;;;;1740138;28;20210;-70
2022/09/29 04:11:49;;;;;;;0.00;0.00;;;;;;;;;;1740064;28;20241;-69
2022/09/29 04:12:41;;;;;;;0.00;0.00;;;;;;;;;;1739709;28;20199;-70
2022/09/29 04:13:33;;;;;;;0.00;0.00;;;;;;;;;;1739848;28;20313;-69
2022/09/29 04:14:25;;;;;;;0.00;0.00;;;;;;;;;;1739359;28;20314;-69
2022/09/29 04:15:16;;;;;;;0.05;0.05;;;;;;;;;;1740162;28;20234;-71
2022/09/29 04:16:08;;;;;;;0.00;0.00;;;;;;;;;;1739730;28;20637;-70
2022/09/29 04:16:59;;;;;;;0.00;0.00;;;;;;;;;;1736128;28;20203;-70
2022/09/29 04:17:51;;;;;;;0.00;0.00;;;;;;;;;;1739819;28;20268;-70
2022/09/29 04:18:43;;;;;;;0.00;0.00;;;;;;;;;;1739881;28;20667;-70
2022/09/29 04:19:35;;;;;;;0.00;0.00;;;;;;;;;;1739320;28;20203;-70
2022/09/29 04:20:26;;;;;;;0.00;0.00;;;;;;;;;;1740369;28;20198;-70
2022/09/29 04:21:19;;;;;;;0.00;0.00;;;;;;;;;;1739507;28;20203;-69
2022/09/29 04:22:10;;;;;;;0.00;0.00;;;;;;;;;;1740006;28;20207;-70
2022/09/29 04:23:03;;;;;;;0.00;0.00;;;;;;;;;;1739662;28;20363;-69
2022/09/29 04:23:54;;;;;;;0.00;0.00;;;;;;;;;;1739910;28;20214;-70
2022/09/29 04:24:47;;;;;;;0.00;0.00;;;;;;;;;;1739103;28;20206;-70
2022/09/29 04:25:38;;;;;;;0.00;0.00;;;;;;;;;;1740424;28;20531;-69
2022/09/29 04:26:30;;;;;;;0.00;0.00;;;;;;;;;;1739625;28;20243;-69
2022/09/29 04:27:21;;;;;;;0.00;0.00;;;;;;;;;;1739854;28;20245;-69
2022/09/29 04:28:13;;;;;;;0.00;0.00;;;;;;;;;;1739597;28;20211;-70
2022/09/29 04:29:04;;;;;;;0.00;0.00;;;;;;;;;;1739798;28;20260;-70
2022/09/29 04:29:56;;;;;;;0.00;0.00;;;;;;;;;;1739271;28;20477;-70
2022/09/29 04:30:47;;;;;;;0.00;0.00;;;;;;;;;;1740060;28;20435;-69
2022/09/29 04:31:39;;;;;;;0.00;0.00;;;;;;;;;;1739401;28;20729;-71
2022/09/29 04:32:31;;;;;;;0.00;0.00;;;;;;;;;;1740170;28;20218;-70
2022/09/29 04:33:23;;;;;;;0.00;0.00;;;;;;;;;;1739368;28;20199;-70
2022/09/29 04:34:14;;;;;;;0.00;0.00;;;;;;;;;;1739887;28;20266;-70
2022/09/29 04:35:06;;;;;;;0.00;0.00;;;;;;;;;;1739435;28;20207;-70
2022/09/29 04:35:57;;;;;;;0.00;0.00;;;;;;;;;;1740132;28;20272;-70
2022/09/29 04:36:51;;;;;;;0.00;0.00;;;;;;;;;;1740286;28;20210;-70
2022/09/29 04:37:42;;;;;;;0.00;0.00;;;;;;;;;;1739387;28;20734;-70
2022/09/29 04:38:34;;;;;;;0.00;0.00;;;;;;;;;;1740475;28;20199;-70
2022/09/29 04:39:25;;;;;;;0.00;0.00;;;;;;;;;;1739396;28;20199;-70
2022/09/29 04:40:17;;;;;;;0.00;0.00;;;;;;;;;;1740776;28;20591;-70
2022/09/29 04:41:09;;;;;;;0.00;0.00;;;;;;;;;;1739466;28;20242;-70
2022/09/29 04:42:01;;;;;;;0.00;0.00;;;;;;;;;;1740413;28;20289;-70
2022/09/29 04:42:52;;;;;;;0.00;0.00;;;;;;;;;;1739712;28;20241;-70
2022/09/29 04:43:44;;;;;;;0.00;0.00;;;;;;;;;;1740082;28;20268;-70
2022/09/29 04:44:35;;;;;;;0.00;0.00;;;;;;;;;;1739053;28;20241;-70
2022/09/29 04:45:27;;;;;;;0.00;0.00;;;;;;;;;;1740015;28;20195;-70
2022/09/29 04:46:18;;;;;;;0.00;0.00;;;;;;;;;;1738662;28;20542;-71
2022/09/29 04:47:10;;;;;;;0.00;0.00;;;;;;;;;;1739985;28;20544;-71
2022/09/29 04:48:01;;;;;;;0.00;0.00;;;;;;;;;;1739797;28;20592;-71
2022/09/29 04:48:53;;;;;;;0.00;0.00;;;;;;;;;;1740633;28;20452;-71
2022/09/29 04:49:44;;;;;;;0.00;0.00;;;;;;;;;;1739262;28;20207;-70
2022/09/29 04:50:36;;;;;;;0.00;0.00;;;;;;;;;;1740797;28;20256;-71
2022/09/29 04:51:27;;;;;;;0.00;0.00;;;;;;;;;;1739055;28;20203;-70
2022/09/29 04:52:21;;;;;;;0.00;0.00;;;;;;;;;;1739715;28;20642;-70
2022/09/29 04:53:12;;;;;;;0.00;0.00;;;;;;;;;;1739008;28;20242;-70
2022/09/29 04:54:04;;;;;;;0.00;0.00;;;;;;;;;;1739566;28;20290;-70
2022/09/29 04:54:55;;;;;;;0.00;0.00;;;;;;;;;;1738827;28;20249;-70
2022/09/29 04:55:47;;;;;;;0.00;0.00;;;;;;;;;;1739990;28;20256;-70
2022/09/29 04:56:38;;;;;;;0.00;0.00;;;;;;;;;;1738624;28;20203;-70
2022/09/29 04:57:30;;;;;;;0.00;0.00;;;;;;;;;;1739914;28;20651;-70
2022/09/29 04:58:21;;;;;;;0.00;0.00;;;;;;;;;;1738744;28;20625;-70
2022/09/29 04:59:13;;;;;;;0.00;0.00;;;;;;;;;;1739615;28;20878;-70
2022/09/29 05:00:06;;;;;;;0.00;0.00;;;;;;;;;;1739066;28;20691;-70
2022/09/29 05:01:05;;;;;;;0.00;0.00;;;;;;;;;;1739493;28;20249;-70
2022/09/29 05:01:56;;;;;;;0.00;0.00;;;;;;;;;;1739359;28;20238;-70
2022/09/29 05:02:48;;;;;;;0.00;0.00;;;;;;;;;;1738863;28;20260;-71
2022/09/29 05:03:39;;;;;;;0.00;0.00;;;;;;;;;;1740060;28;20253;-70
2022/09/29 05:04:31;;;;;;;0.00;0.00;;;;;;;;;;1739335;28;20199;-70
2022/09/29 05:05:22;;;;;;;0.00;0.00;;;;;;;;;;1740580;28;20199;-70
2022/09/29 05:06:14;;;;;;;0.00;0.00;;;;;;;;;;1739370;28;20198;-71
2022/09/29 05:07:05;;;;;;;0.00;0.00;;;;;;;;;;1739922;28;20210;-70
2022/09/29 05:08:02;;;;;;;0.00;0.00;;;;;;;;;;1739671;28;20221;-70
2022/09/29 05:08:54;;;;;;;0.00;0.00;;;;;;;;;;1740289;28;20531;-71
2022/09/29 05:09:46;;;;;;;0.00;0.00;;;;;;;;;;1739416;28;20620;-70
2022/09/29 05:10:37;;;;;;;0.00;0.00;;;;;;;;;;1740523;28;20209;-70
2022/09/29 05:11:29;;;;;;;0.00;0.00;;;;;;;;;;1739249;28;20225;-70
2022/09/29 05:12:20;;;;;;;0.00;0.00;;;;;;;;;;1739357;28;20546;-69
2022/09/29 05:13:12;;;;;;;0.00;0.00;;;;;;;;;;1738471;28;20526;-69
2022/09/29 05:14:03;;;;;;;0.00;0.00;;;;;;;;;;1739601;28;20572;-70
2022/09/29 05:14:55;;;;;;;0.00;0.00;;;;;;;;;;1738482;28;20265;-70
2022/09/29 05:15:46;;;;;;;0.00;0.00;;;;;;;;;;1740000;28;20207;-70
2022/09/29 05:16:38;;;;;;;0.00;0.00;;;;;;;;;;1738583;28;20195;-70
2022/09/29 05:17:30;;;;;;;0.00;0.00;;;;;;;;;;1739429;28;20238;-70
2022/09/29 05:18:22;;;;;;;0.00;0.00;;;;;;;;;;1738776;28;20195;-70
2022/09/29 05:19:13;;;;;;;0.00;0.00;;;;;;;;;;1739238;28;20253;-70